createdAt,value
2019-03-17T00:01:06.406Z,43.58
2019-03-17T00:02:11.090Z,42.98
2019-03-17T00:03:16.175Z,43.61
2019-03-17T00:04:30.935Z,43.77
2019-03-17T00:05:28.185Z,43.22
2019-03-17T00:06:33.242Z,43.36
2019-03-17T00:07:38.491Z,43.22
2019-03-17T00:08:43.290Z,43.00
2019-03-17T00:09:51.023Z,42.91
2019-03-17T00:10:56.008Z,43.30
2019-03-17T00:12:01.014Z,43.21
2019-03-17T00:13:05.724Z,43.04
2019-03-17T00:14:10.767Z,42.40
2019-03-17T00:15:15.997Z,42.75
2019-03-17T00:16:20.495Z,42.74
2019-03-17T00:17:25.787Z,42.83
2019-03-17T00:18:30.788Z,42.48
2019-03-17T00:19:35.545Z,42.56
2019-03-17T00:20:40.553Z,42.94
2019-03-17T00:21:45.629Z,42.92
2019-03-17T00:22:50.904Z,43.18
2019-03-17T00:23:56.230Z,42.91
2019-03-17T00:25:09.258Z,42.73
2019-03-17T00:26:08.301Z,42.37
2019-03-17T00:27:13.575Z,42.55
2019-03-17T00:28:19.159Z,42.64
2019-03-17T00:29:24.550Z,42.87
2019-03-17T00:30:29.809Z,42.99
2019-03-17T00:31:35.168Z,42.93
2019-03-17T00:32:40.199Z,42.43
2019-03-17T00:33:45.306Z,42.15
2019-03-17T00:34:51.045Z,42.67
2019-03-17T00:35:56.223Z,41.91
2019-03-17T00:37:00.935Z,42.29
2019-03-17T00:38:06.020Z,42.47
2019-03-17T00:39:11.626Z,42.37
2019-03-17T00:40:17.303Z,42.99
2019-03-17T00:41:22.580Z,42.19
2019-03-17T00:42:27.574Z,41.90
2019-03-17T00:43:32.928Z,42.11
2019-03-17T00:44:38.393Z,42.31
2019-03-17T00:45:43.839Z,42.29
2019-03-17T00:46:49.099Z,42.05
2019-03-17T00:47:54.474Z,42.50
2019-03-17T00:49:00.079Z,42.71
2019-03-17T00:50:04.947Z,42.54
2019-03-17T00:51:10.409Z,42.12
2019-03-17T00:52:15.636Z,42.28
2019-03-17T00:53:20.619Z,42.59
2019-03-17T00:54:25.905Z,43.17
2019-03-17T00:55:30.957Z,42.20
2019-03-17T00:56:35.989Z,42.22
2019-03-17T00:57:41.297Z,41.94
2019-03-17T00:58:46.409Z,41.67
2019-03-17T00:59:51.640Z,42.13
2019-03-17T01:00:57.136Z,42.35
2019-03-17T01:02:02.723Z,42.22
2019-03-17T01:03:08.078Z,42.07
2019-03-17T01:04:13.623Z,41.64
2019-03-17T01:05:18.701Z,42.05
2019-03-17T01:06:24.011Z,41.93
2019-03-17T01:07:29.241Z,41.86
2019-03-17T01:08:34.224Z,42.05
2019-03-17T01:09:39.334Z,42.05
2019-03-17T01:10:44.291Z,41.64
2019-03-17T01:11:49.967Z,42.28
2019-03-17T01:12:55.552Z,42.04
2019-03-17T01:14:01.133Z,42.17
2019-03-17T01:15:06.197Z,42.36
2019-03-17T01:16:11.234Z,42.78
2019-03-17T01:17:16.405Z,42.23
2019-03-17T01:18:22.120Z,41.64
2019-03-17T01:19:27.694Z,41.49
2019-03-17T01:20:33.091Z,41.95
2019-03-17T01:21:37.853Z,41.66
2019-03-17T01:22:42.786Z,41.84
2019-03-17T01:23:48.419Z,41.86
2019-03-17T01:24:53.499Z,41.96
2019-03-17T01:25:58.689Z,41.83
2019-03-17T01:27:03.443Z,42.21
2019-03-17T01:28:08.739Z,41.37
2019-03-17T01:29:13.981Z,41.87
2019-03-17T01:30:18.966Z,41.70
2019-03-17T01:31:24.757Z,42.19
2019-03-17T01:32:30.083Z,41.65
2019-03-17T01:33:35.365Z,41.47
2019-03-17T01:34:40.339Z,41.46
2019-03-17T01:35:45.347Z,41.64
2019-03-17T01:36:50.640Z,41.27
2019-03-17T01:37:55.101Z,41.20
2019-03-17T01:39:00.388Z,41.38
2019-03-17T01:40:05.045Z,41.60
2019-03-17T01:41:09.510Z,41.92
2019-03-17T01:42:15.153Z,41.75
2019-03-17T01:43:19.959Z,41.96
2019-03-17T01:44:25.852Z,41.78
2019-03-17T01:45:30.815Z,41.84
2019-03-17T01:46:35.817Z,41.77
2019-03-17T01:47:40.588Z,41.91
2019-03-17T01:48:47.265Z,42.11
2019-03-17T01:49:52.283Z,41.67
2019-03-17T01:50:57.251Z,41.60
2019-03-17T01:52:02.607Z,41.78
2019-03-17T01:53:10.743Z,41.63
2019-03-17T01:54:15.970Z,41.71
2019-03-17T01:55:21.601Z,41.57
2019-03-17T01:56:26.907Z,41.41
2019-03-17T01:57:32.112Z,41.62
2019-03-17T01:58:37.136Z,41.70
2019-03-17T01:59:42.119Z,41.38
2019-03-17T02:00:46.928Z,41.38
2019-03-17T02:01:52.189Z,41.79
2019-03-17T02:02:56.885Z,42.14
2019-03-17T02:04:02.155Z,41.52
2019-03-17T02:05:07.459Z,41.76
2019-03-17T02:06:12.573Z,41.37
2019-03-17T02:07:18.324Z,41.32
2019-03-17T02:08:23.596Z,41.52
2019-03-17T02:09:28.852Z,41.80
2019-03-17T02:10:33.855Z,41.76
2019-03-17T02:11:38.932Z,41.56
2019-03-17T02:12:43.945Z,42.13
2019-03-17T02:13:49.287Z,41.53
2019-03-17T02:14:54.808Z,41.76
2019-03-17T02:15:59.834Z,41.68
2019-03-17T02:17:04.639Z,41.69
2019-03-17T02:18:09.678Z,41.73
2019-03-17T02:19:14.375Z,41.41
2019-03-17T02:20:19.342Z,41.23
2019-03-17T02:21:24.332Z,42.13
2019-03-17T02:22:29.385Z,42.28
2019-03-17T02:23:35.062Z,41.69
2019-03-17T02:24:39.799Z,41.89
2019-03-17T02:25:45.384Z,41.05
2019-03-17T02:26:50.439Z,41.46
2019-03-17T02:27:55.429Z,41.63
2019-03-17T02:29:01.091Z,41.25
2019-03-17T02:30:06.276Z,41.18
2019-03-17T02:31:11.548Z,41.48
2019-03-17T02:32:17.101Z,41.11
2019-03-17T02:33:21.859Z,41.37
2019-03-17T02:34:27.177Z,41.10
2019-03-17T02:35:39.588Z,41.74
2019-03-17T02:36:39.291Z,42.04
2019-03-17T02:37:44.544Z,42.13
2019-03-17T02:38:49.844Z,41.97
2019-03-17T02:39:54.518Z,41.92
2019-03-17T02:40:59.835Z,41.47
2019-03-17T02:42:04.541Z,41.79
2019-03-17T02:43:09.571Z,41.63
2019-03-17T02:44:14.818Z,41.48
2019-03-17T02:45:19.832Z,41.38
2019-03-17T02:46:24.577Z,41.78
2019-03-17T02:47:29.534Z,40.99
2019-03-17T02:48:34.246Z,41.30
2019-03-17T02:49:39.208Z,41.39
2019-03-17T02:50:43.928Z,41.20
2019-03-17T02:51:49.587Z,41.50
2019-03-17T02:52:54.920Z,41.34
2019-03-17T02:53:59.890Z,41.52
2019-03-17T02:55:04.706Z,41.00
2019-03-17T02:56:09.467Z,41.20
2019-03-17T02:57:14.736Z,41.27
2019-03-17T02:58:19.684Z,41.82
2019-03-17T02:59:24.729Z,41.67
2019-03-17T03:00:29.747Z,41.73
2019-03-17T03:01:35.282Z,41.48
2019-03-17T03:02:40.284Z,41.65
2019-03-17T03:03:45.894Z,41.17
2019-03-17T03:04:51.415Z,41.43
2019-03-17T03:05:56.761Z,41.29
2019-03-17T03:07:02.372Z,41.77
2019-03-17T03:08:07.223Z,41.88
2019-03-17T03:09:12.451Z,41.61
2019-03-17T03:10:17.470Z,41.46
2019-03-17T03:11:22.586Z,41.17
2019-03-17T03:12:27.586Z,40.70
2019-03-17T03:13:32.833Z,40.88
2019-03-17T03:14:37.818Z,41.38
2019-03-17T03:15:42.790Z,41.24
2019-03-17T03:16:47.887Z,41.93
2019-03-17T03:17:53.940Z,41.32
2019-03-17T03:18:58.911Z,41.05
2019-03-17T03:20:04.061Z,41.05
2019-03-17T03:21:09.009Z,42.37
2019-03-17T03:22:13.688Z,42.33
2019-03-17T03:23:19.314Z,41.71
2019-03-17T03:24:24.566Z,41.45
2019-03-17T03:25:30.175Z,41.36
2019-03-17T03:26:35.482Z,41.41
2019-03-17T03:27:40.442Z,41.30
2019-03-17T03:28:48.292Z,41.63
2019-03-17T03:29:53.567Z,42.17
2019-03-17T03:30:58.597Z,41.56
2019-03-17T03:32:03.556Z,41.51
2019-03-17T03:33:08.792Z,41.56
2019-03-17T03:34:13.854Z,41.44
2019-03-17T03:35:19.276Z,41.22
2019-03-17T03:36:24.579Z,41.63
2019-03-17T03:37:30.133Z,41.90
2019-03-17T03:38:35.666Z,42.05
2019-03-17T03:39:41.384Z,41.68
2019-03-17T03:40:46.312Z,41.21
2019-03-17T03:41:51.887Z,41.66
2019-03-17T03:42:57.352Z,41.73
2019-03-17T03:44:02.483Z,41.59
2019-03-17T03:45:07.626Z,41.94
2019-03-17T03:46:12.618Z,42.16
2019-03-17T03:47:17.604Z,42.59
2019-03-17T03:48:22.912Z,42.15
2019-03-17T03:49:28.447Z,41.60
2019-03-17T03:50:33.400Z,41.83
2019-03-17T03:51:38.500Z,42.47
2019-03-17T03:52:46.512Z,42.49
2019-03-17T03:53:51.568Z,42.32
2019-03-17T03:54:56.838Z,42.30
2019-03-17T03:56:02.420Z,41.90
2019-03-17T03:57:07.866Z,41.76
2019-03-17T03:58:13.156Z,41.95
2019-03-17T03:59:18.228Z,42.31
2019-03-17T04:00:22.992Z,41.92
2019-03-17T04:01:28.282Z,41.65
2019-03-17T04:02:33.672Z,41.37
2019-03-17T04:03:38.995Z,41.93
2019-03-17T04:04:43.935Z,41.58
2019-03-17T04:05:48.933Z,41.30
2019-03-17T04:06:53.924Z,41.62
2019-03-17T04:07:59.476Z,41.98
2019-03-17T04:09:06.159Z,41.69
2019-03-17T04:10:11.326Z,41.65
2019-03-17T04:11:16.633Z,41.59
2019-03-17T04:12:21.617Z,41.52
2019-03-17T04:13:27.234Z,41.63
2019-03-17T04:14:32.612Z,41.12
2019-03-17T04:15:37.335Z,41.41
2019-03-17T04:16:42.640Z,41.30
2019-03-17T04:17:47.485Z,41.05
2019-03-17T04:18:51.933Z,41.13
2019-03-17T04:19:57.349Z,41.19
2019-03-17T04:21:02.406Z,41.12
2019-03-17T04:22:07.117Z,41.22
2019-03-17T04:23:12.097Z,41.63
2019-03-17T04:24:17.371Z,41.16
2019-03-17T04:25:22.760Z,41.08
2019-03-17T04:26:27.854Z,41.14
2019-03-17T04:27:32.938Z,41.88
2019-03-17T04:28:38.404Z,41.75
2019-03-17T04:29:43.347Z,41.87
2019-03-17T04:30:48.198Z,41.80
2019-03-17T04:31:53.629Z,42.18
2019-03-17T04:32:58.416Z,42.24
2019-03-17T04:34:03.432Z,42.15
2019-03-17T04:35:08.141Z,41.78
2019-03-17T04:36:13.426Z,42.07
2019-03-17T04:37:18.693Z,42.11
2019-03-17T04:38:24.393Z,41.83
2019-03-17T04:39:29.994Z,41.78
2019-03-17T04:40:36.641Z,41.91
2019-03-17T04:41:41.585Z,42.33
2019-03-17T04:42:46.584Z,42.49
2019-03-17T04:43:52.390Z,43.21
2019-03-17T04:44:57.188Z,43.25
2019-03-17T04:46:02.299Z,43.19
2019-03-17T04:47:07.332Z,42.71
2019-03-17T04:48:12.559Z,42.53
2019-03-17T04:49:17.831Z,42.72
2019-03-17T04:50:22.825Z,42.80
2019-03-17T04:51:27.902Z,42.44
2019-03-17T04:52:32.892Z,42.91
2019-03-17T04:53:38.107Z,42.56
2019-03-17T04:54:42.802Z,42.61
2019-03-17T04:55:48.232Z,42.82
2019-03-17T04:56:52.998Z,42.75
2019-03-17T04:57:57.968Z,42.66
2019-03-17T04:59:02.766Z,43.38
2019-03-17T05:00:08.167Z,42.89
2019-03-17T05:01:13.163Z,42.85
2019-03-17T05:02:18.235Z,43.61
2019-03-17T05:03:26.088Z,43.64
2019-03-17T05:04:31.335Z,43.05
2019-03-17T05:05:36.567Z,43.26
2019-03-17T05:06:52.164Z,43.18
2019-03-17T05:07:48.770Z,43.20
2019-03-17T05:08:53.790Z,43.47
2019-03-17T05:09:59.093Z,43.35
2019-03-17T05:11:03.564Z,43.97
2019-03-17T05:12:09.163Z,44.20
2019-03-17T05:13:14.644Z,43.79
2019-03-17T05:14:20.032Z,43.51
2019-03-17T05:15:25.013Z,43.31
2019-03-17T05:16:30.338Z,43.45
2019-03-17T05:17:35.879Z,43.60
2019-03-17T05:18:41.156Z,43.19
2019-03-17T05:19:48.136Z,43.92
2019-03-17T05:20:53.414Z,44.25
2019-03-17T05:21:58.436Z,44.14
2019-03-17T05:23:05.949Z,44.21
2019-03-17T05:24:10.493Z,44.06
2019-03-17T05:25:15.444Z,44.49
2019-03-17T05:26:21.665Z,44.64
2019-03-17T05:27:26.717Z,45.56
2019-03-17T05:28:32.301Z,45.90
2019-03-17T05:29:37.632Z,45.77
2019-03-17T05:30:42.647Z,46.14
2019-03-17T05:31:47.377Z,46.11
2019-03-17T05:32:52.339Z,46.57
2019-03-17T05:33:57.611Z,45.93
2019-03-17T05:35:03.570Z,46.68
2019-03-17T05:36:08.980Z,45.69
2019-03-17T05:37:13.961Z,46.71
2019-03-17T05:38:19.293Z,45.91
2019-03-17T05:39:24.589Z,45.79
2019-03-17T05:40:29.650Z,46.41
2019-03-17T05:41:34.822Z,46.29
2019-03-17T05:42:40.904Z,47.16
2019-03-17T05:43:46.904Z,47.81
2019-03-17T05:44:52.184Z,49.01
2019-03-17T05:45:57.728Z,47.81
2019-03-17T05:47:03.352Z,48.50
2019-03-17T05:48:08.914Z,48.79
2019-03-17T05:49:13.897Z,49.20
2019-03-17T05:50:19.256Z,48.72
2019-03-17T05:51:24.773Z,49.51
2019-03-17T05:52:29.641Z,49.33
2019-03-17T05:53:34.640Z,49.67
2019-03-17T05:54:39.332Z,49.65
2019-03-17T05:55:44.658Z,50.26
2019-03-17T05:56:49.839Z,49.92
2019-03-17T05:57:54.863Z,49.84
2019-03-17T05:59:00.244Z,49.69
2019-03-17T06:00:05.647Z,49.30
2019-03-17T06:01:11.327Z,49.88
2019-03-17T06:02:16.868Z,49.75
2019-03-17T06:03:22.212Z,52.50
2019-03-17T06:04:27.281Z,50.42
2019-03-17T06:05:32.881Z,51.26
2019-03-17T06:06:38.399Z,50.49
2019-03-17T06:07:43.377Z,50.44
2019-03-17T06:08:49.063Z,50.50
2019-03-17T06:09:54.652Z,51.14
2019-03-17T06:10:59.951Z,51.36
2019-03-17T06:12:04.632Z,51.03
2019-03-17T06:13:09.963Z,51.73
2019-03-17T06:14:15.013Z,51.50
2019-03-17T06:15:20.371Z,50.97
2019-03-17T06:16:25.999Z,52.12
2019-03-17T06:17:31.667Z,52.31
2019-03-17T06:18:36.935Z,51.92
2019-03-17T06:19:42.469Z,52.00
2019-03-17T06:20:50.503Z,53.08
2019-03-17T06:21:55.552Z,52.53
2019-03-17T06:23:00.509Z,53.40
2019-03-17T06:24:05.266Z,53.06
2019-03-17T06:25:10.410Z,53.52
2019-03-17T06:26:15.503Z,54.03
2019-03-17T06:27:20.855Z,53.60
2019-03-17T06:28:26.226Z,54.28
2019-03-17T06:29:31.773Z,53.30
2019-03-17T06:30:36.753Z,53.24
2019-03-17T06:31:42.330Z,53.13
2019-03-17T06:32:47.727Z,54.11
2019-03-17T06:33:53.159Z,53.84
2019-03-17T06:34:57.831Z,53.64
2019-03-17T06:36:03.509Z,54.06
2019-03-17T06:37:08.224Z,53.70
2019-03-17T06:38:13.869Z,55.86
2019-03-17T06:39:19.430Z,54.27
2019-03-17T06:40:24.721Z,54.97
2019-03-17T06:41:29.400Z,54.70
2019-03-17T06:42:34.898Z,53.67
2019-03-17T06:43:40.381Z,54.59
2019-03-17T06:44:45.477Z,54.23
2019-03-17T06:45:50.704Z,54.04
2019-03-17T06:46:55.988Z,54.32
2019-03-17T06:48:01.247Z,53.58
2019-03-17T06:49:06.199Z,54.09
2019-03-17T06:50:11.568Z,54.30
2019-03-17T06:51:16.597Z,53.08
2019-03-17T06:52:21.396Z,54.31
2019-03-17T06:53:26.698Z,53.79
2019-03-17T06:54:31.855Z,54.77
2019-03-17T06:55:36.860Z,54.39
2019-03-17T06:56:42.416Z,55.26
2019-03-17T06:57:47.476Z,52.95
2019-03-17T06:58:52.607Z,53.40
2019-03-17T06:59:57.585Z,53.21
2019-03-17T07:01:02.284Z,53.88
2019-03-17T07:02:07.657Z,54.86
2019-03-17T07:03:12.845Z,54.00
2019-03-17T07:04:17.852Z,54.59
2019-03-17T07:05:23.407Z,53.79
2019-03-17T07:06:27.856Z,53.59
2019-03-17T07:07:43.362Z,54.01
2019-03-17T07:08:39.996Z,53.72
2019-03-17T07:09:45.625Z,53.15
2019-03-17T07:10:50.382Z,54.03
2019-03-17T07:11:55.366Z,53.34
2019-03-17T07:13:01.061Z,53.32
2019-03-17T07:14:06.248Z,54.00
2019-03-17T07:15:11.039Z,52.73
2019-03-17T07:16:16.403Z,52.46
2019-03-17T07:17:21.403Z,52.60
2019-03-17T07:18:26.117Z,53.18
2019-03-17T07:19:31.093Z,52.13
2019-03-17T07:20:36.203Z,52.83
2019-03-17T07:21:40.990Z,52.43
2019-03-17T07:22:45.776Z,52.89
2019-03-17T07:23:50.777Z,53.68
2019-03-17T07:24:55.441Z,52.88
2019-03-17T07:26:00.883Z,53.44
2019-03-17T07:27:05.932Z,54.22
2019-03-17T07:28:11.339Z,55.08
2019-03-17T07:29:16.624Z,54.26
2019-03-17T07:30:21.642Z,54.19
2019-03-17T07:31:26.656Z,54.26
2019-03-17T07:32:31.950Z,53.38
2019-03-17T07:33:37.355Z,53.47
2019-03-17T07:34:42.632Z,55.28
2019-03-17T07:35:47.857Z,55.29
2019-03-17T07:36:53.203Z,55.43
2019-03-17T07:37:59.379Z,56.44
2019-03-17T07:39:11.792Z,54.18
2019-03-17T07:40:12.853Z,54.99
2019-03-17T07:41:17.858Z,54.81
2019-03-17T07:42:22.637Z,55.12
2019-03-17T07:43:28.094Z,54.95
2019-03-17T07:44:34.596Z,54.58
2019-03-17T07:45:39.672Z,54.57
2019-03-17T07:46:44.710Z,52.92
2019-03-17T07:47:49.904Z,53.12
2019-03-17T07:48:56.126Z,52.53
2019-03-17T07:50:02.052Z,52.64
2019-03-17T07:51:07.207Z,51.57
2019-03-17T07:52:11.950Z,54.12
2019-03-17T07:53:17.301Z,52.77
2019-03-17T07:54:22.258Z,52.00
2019-03-17T07:55:27.559Z,51.72
2019-03-17T07:56:32.676Z,51.38
2019-03-17T07:57:37.955Z,51.41
2019-03-17T07:58:43.556Z,52.00
2019-03-17T07:59:48.497Z,50.65
2019-03-17T08:00:53.772Z,50.01
2019-03-17T08:01:59.045Z,50.85
2019-03-17T08:03:04.316Z,49.51
2019-03-17T08:04:09.010Z,50.20
2019-03-17T08:05:14.636Z,48.79
2019-03-17T08:06:20.268Z,50.12
2019-03-17T08:07:25.233Z,48.89
2019-03-17T08:08:30.631Z,48.48
2019-03-17T08:09:36.019Z,47.87
2019-03-17T08:10:41.317Z,48.02
2019-03-17T08:11:48.695Z,48.40
2019-03-17T08:12:54.070Z,48.85
2019-03-17T08:13:59.409Z,48.00
2019-03-17T08:15:04.120Z,48.66
2019-03-17T08:16:09.609Z,48.06
2019-03-17T08:17:14.339Z,46.99
2019-03-17T08:18:20.069Z,45.56
2019-03-17T08:19:24.774Z,45.89
2019-03-17T08:20:29.746Z,45.51
2019-03-17T08:21:35.044Z,45.91
2019-03-17T08:22:40.377Z,46.21
2019-03-17T08:23:45.341Z,45.78
2019-03-17T08:24:50.739Z,45.37
2019-03-17T08:25:55.712Z,46.51
2019-03-17T08:27:00.991Z,45.67
2019-03-17T08:28:08.112Z,45.34
2019-03-17T08:29:13.221Z,45.22
2019-03-17T08:30:19.659Z,45.56
2019-03-17T08:31:24.924Z,45.03
2019-03-17T08:32:29.949Z,45.53
2019-03-17T08:33:34.680Z,44.72
2019-03-17T08:34:39.837Z,45.01
2019-03-17T08:35:45.089Z,45.36
2019-03-17T08:36:50.207Z,44.26
2019-03-17T08:37:55.485Z,44.13
2019-03-17T08:39:00.239Z,44.41
2019-03-17T08:40:05.733Z,44.24
2019-03-17T08:41:10.554Z,43.97
2019-03-17T08:42:15.946Z,44.38
2019-03-17T08:43:20.738Z,43.80
2019-03-17T08:44:26.004Z,43.76
2019-03-17T08:45:31.342Z,43.40
2019-03-17T08:46:36.715Z,44.07
2019-03-17T08:47:41.714Z,43.70
2019-03-17T08:48:46.991Z,42.63
2019-03-17T08:49:51.366Z,42.72
2019-03-17T08:50:56.366Z,41.50
2019-03-17T08:52:01.736Z,42.06
2019-03-17T08:53:06.512Z,41.84
2019-03-17T08:54:11.489Z,42.05
2019-03-17T08:55:16.767Z,42.12
2019-03-17T08:56:21.763Z,42.86
2019-03-17T08:57:27.074Z,42.05
2019-03-17T08:58:32.494Z,42.67
2019-03-17T08:59:38.055Z,43.36
2019-03-17T09:00:43.289Z,43.03
2019-03-17T09:01:50.518Z,42.83
2019-03-17T09:02:55.578Z,43.00
2019-03-17T09:04:00.963Z,42.80
2019-03-17T09:05:06.191Z,42.93
2019-03-17T09:06:11.383Z,43.07
2019-03-17T09:07:16.378Z,42.84
2019-03-17T09:08:33.971Z,43.46
2019-03-17T09:09:28.705Z,43.44
2019-03-17T09:10:34.000Z,43.59
2019-03-17T09:11:38.968Z,44.48
2019-03-17T09:12:44.605Z,45.17
2019-03-17T09:13:49.847Z,45.35
2019-03-17T09:14:55.108Z,44.41
2019-03-17T09:16:00.330Z,45.01
2019-03-17T09:17:14.295Z,44.25
2019-03-17T09:18:12.931Z,44.22
2019-03-17T09:19:17.637Z,44.36
2019-03-17T09:20:23.080Z,43.70
2019-03-17T09:21:28.439Z,43.14
2019-03-17T09:22:34.053Z,43.29
2019-03-17T09:23:42.413Z,44.13
2019-03-17T09:24:46.467Z,43.52
2019-03-17T09:25:51.530Z,44.71
2019-03-17T09:26:56.844Z,44.16
2019-03-17T09:28:02.600Z,44.47
2019-03-17T09:29:07.388Z,45.05
2019-03-17T09:30:13.108Z,44.73
2019-03-17T09:31:18.738Z,44.11
2019-03-17T09:32:24.261Z,43.97
2019-03-17T09:33:28.989Z,43.84
2019-03-17T09:34:34.232Z,43.64
2019-03-17T09:35:39.506Z,43.90
2019-03-17T09:36:44.836Z,43.47
2019-03-17T09:37:49.875Z,42.98
2019-03-17T09:38:54.908Z,42.54
2019-03-17T09:40:00.420Z,42.35
2019-03-17T09:41:05.756Z,42.59
2019-03-17T09:42:11.979Z,42.59
2019-03-17T09:43:17.156Z,42.88
2019-03-17T09:44:22.483Z,42.76
2019-03-17T09:45:27.720Z,42.52
2019-03-17T09:46:33.227Z,42.99
2019-03-17T09:47:40.976Z,42.56
2019-03-17T09:48:44.582Z,42.52
2019-03-17T09:49:49.950Z,42.45
2019-03-17T09:50:55.244Z,42.17
2019-03-17T09:52:00.557Z,42.12
2019-03-17T09:53:05.725Z,42.29
2019-03-17T09:54:10.980Z,42.51
2019-03-17T09:55:15.734Z,42.59
2019-03-17T09:56:20.749Z,42.05
2019-03-17T09:57:25.703Z,41.78
2019-03-17T09:58:30.678Z,41.81
2019-03-17T09:59:35.699Z,41.68
2019-03-17T10:00:40.945Z,41.84
2019-03-17T10:01:46.007Z,41.93
2019-03-17T10:02:50.965Z,41.77
2019-03-17T10:03:56.474Z,41.19
2019-03-17T10:05:01.485Z,40.48
2019-03-17T10:06:06.917Z,40.31
2019-03-17T10:07:12.373Z,41.12
2019-03-17T10:08:17.653Z,40.20
2019-03-17T10:09:22.664Z,39.86
2019-03-17T10:10:27.694Z,40.04
2019-03-17T10:11:33.041Z,40.01
2019-03-17T10:12:38.316Z,40.43
2019-03-17T10:13:43.323Z,40.00
2019-03-17T10:14:51.183Z,39.80
2019-03-17T10:15:56.230Z,40.13
2019-03-17T10:17:02.097Z,40.64
2019-03-17T10:18:06.836Z,40.12
2019-03-17T10:19:12.348Z,40.42
2019-03-17T10:20:17.068Z,40.58
2019-03-17T10:21:22.028Z,40.79
2019-03-17T10:22:27.315Z,40.08
2019-03-17T10:23:32.255Z,40.54
2019-03-17T10:24:37.270Z,39.37
2019-03-17T10:25:42.263Z,39.88
2019-03-17T10:26:49.690Z,40.25
2019-03-17T10:27:54.815Z,40.30
2019-03-17T10:29:00.142Z,40.23
2019-03-17T10:30:08.373Z,40.01
2019-03-17T10:31:13.649Z,39.43
2019-03-17T10:32:19.050Z,38.64
2019-03-17T10:33:24.047Z,39.27
2019-03-17T10:34:29.312Z,38.97
2019-03-17T10:35:34.839Z,38.55
2019-03-17T10:36:40.150Z,38.21
2019-03-17T10:37:44.919Z,38.37
2019-03-17T10:38:50.041Z,38.45
2019-03-17T10:39:55.021Z,38.23
2019-03-17T10:40:59.531Z,37.76
2019-03-17T10:42:03.989Z,37.01
2019-03-17T10:43:09.243Z,37.43
2019-03-17T10:44:14.817Z,37.08
2019-03-17T10:45:20.142Z,36.86
2019-03-17T10:46:25.113Z,36.40
2019-03-17T10:47:30.125Z,36.41
2019-03-17T10:48:35.520Z,35.49
2019-03-17T10:49:41.093Z,35.87
2019-03-17T10:50:49.767Z,35.43
2019-03-17T10:51:52.872Z,34.75
2019-03-17T10:52:57.545Z,34.12
2019-03-17T10:54:02.477Z,33.83
2019-03-17T10:55:07.356Z,34.12
2019-03-17T10:56:12.148Z,33.65
2019-03-17T10:57:17.797Z,33.20
2019-03-17T10:58:23.084Z,33.00
2019-03-17T10:59:28.074Z,32.44
2019-03-17T11:00:33.327Z,32.29
2019-03-17T11:01:38.601Z,32.54
2019-03-17T11:02:43.671Z,32.43
2019-03-17T11:03:49.345Z,31.97
2019-03-17T11:04:54.135Z,32.67
2019-03-17T11:05:59.500Z,31.66
2019-03-17T11:07:04.187Z,31.83
2019-03-17T11:08:09.155Z,31.74
2019-03-17T11:09:24.632Z,30.60
2019-03-17T11:10:21.412Z,30.70
2019-03-17T11:11:26.703Z,30.00
2019-03-17T11:12:31.446Z,30.28
2019-03-17T11:13:36.439Z,30.79
2019-03-17T11:14:41.541Z,30.29
2019-03-17T11:15:47.208Z,30.56
2019-03-17T11:16:52.160Z,30.37
2019-03-17T11:17:57.435Z,30.39
2019-03-17T11:19:02.485Z,31.45
2019-03-17T11:20:07.859Z,31.43
2019-03-17T11:21:12.373Z,30.79
2019-03-17T11:22:17.081Z,30.37
2019-03-17T11:23:25.214Z,30.38
2019-03-17T11:24:30.496Z,30.12
2019-03-17T11:25:35.212Z,30.16
2019-03-17T11:26:40.423Z,29.94
2019-03-17T11:27:45.448Z,30.07
2019-03-17T11:28:50.530Z,30.20
2019-03-17T11:29:55.587Z,30.06
2019-03-17T11:31:03.602Z,29.18
2019-03-17T11:32:08.391Z,29.86
2019-03-17T11:33:13.708Z,29.02
2019-03-17T11:34:19.023Z,28.54
2019-03-17T11:35:24.454Z,28.22
2019-03-17T11:36:29.475Z,28.47
2019-03-17T11:37:34.465Z,28.26
2019-03-17T11:38:39.562Z,27.92
2019-03-17T11:39:44.805Z,27.57
2019-03-17T11:40:50.157Z,26.76
2019-03-17T11:41:55.724Z,27.23
2019-03-17T11:43:03.018Z,28.01
2019-03-17T11:44:07.806Z,28.10
2019-03-17T11:45:13.536Z,27.86
2019-03-17T11:46:18.750Z,28.12
2019-03-17T11:47:24.066Z,26.77
2019-03-17T11:48:29.349Z,26.58
2019-03-17T11:49:34.323Z,27.40
2019-03-17T11:50:38.785Z,26.80
2019-03-17T11:51:43.239Z,27.08
2019-03-17T11:52:48.108Z,25.87
2019-03-17T11:53:53.346Z,24.69
2019-03-17T11:54:58.688Z,21.60
2019-03-17T11:56:03.468Z,23.15
2019-03-17T11:57:08.334Z,23.30
2019-03-17T11:58:13.347Z,18.67
2019-03-17T11:59:18.968Z,20.43
2019-03-17T12:00:24.116Z,18.69
2019-03-17T12:01:29.355Z,21.67
2019-03-17T12:02:34.695Z,19.06
2019-03-17T12:03:40.231Z,15.96
2019-03-17T12:04:45.308Z,14.41
2019-03-17T12:05:50.465Z,14.38
2019-03-17T12:06:55.474Z,14.13
2019-03-17T12:08:01.235Z,13.05
2019-03-17T12:09:07.909Z,12.81
2019-03-17T12:10:14.105Z,12.81
2019-03-17T12:11:19.098Z,12.47
2019-03-17T12:12:24.326Z,11.59
2019-03-17T12:13:29.375Z,12.23
2019-03-17T12:14:34.052Z,14.92
2019-03-17T12:15:39.339Z,13.64
2019-03-17T12:16:43.766Z,16.10
2019-03-17T12:17:48.448Z,17.26
2019-03-17T12:18:53.446Z,18.54
2019-03-17T12:19:58.305Z,16.21
2019-03-17T12:21:03.541Z,16.08
2019-03-17T12:22:09.492Z,18.84
2019-03-17T12:23:14.692Z,20.88
2019-03-17T12:24:19.971Z,21.87
2019-03-17T12:25:25.801Z,23.55
2019-03-17T12:26:31.375Z,23.64
2019-03-17T12:27:36.024Z,24.82
2019-03-17T12:28:41.006Z,25.12
2019-03-17T12:29:46.060Z,26.26
2019-03-17T12:30:51.140Z,29.60
2019-03-17T12:31:56.438Z,30.25
2019-03-17T12:33:01.417Z,31.98
2019-03-17T12:34:06.101Z,33.15
2019-03-17T12:35:11.315Z,34.36
2019-03-17T12:36:18.884Z,34.05
2019-03-17T12:37:23.425Z,34.41
2019-03-17T12:38:28.509Z,34.37
2019-03-17T12:39:33.769Z,33.32
2019-03-17T12:40:39.068Z,32.85
2019-03-17T12:41:44.448Z,32.26
2019-03-17T12:42:50.121Z,31.61
2019-03-17T12:43:55.149Z,31.56
2019-03-17T12:45:00.643Z,31.73
2019-03-17T12:46:05.335Z,32.29
2019-03-17T12:47:10.320Z,32.45
2019-03-17T12:48:15.607Z,32.41
2019-03-17T12:49:20.627Z,31.39
2019-03-17T12:50:25.470Z,32.98
2019-03-17T12:51:33.490Z,32.83
2019-03-17T12:52:38.932Z,32.30
2019-03-17T12:53:44.465Z,31.77
2019-03-17T12:54:50.274Z,31.77
2019-03-17T12:55:55.576Z,32.90
2019-03-17T12:57:00.568Z,34.91
2019-03-17T12:58:05.643Z,35.42
2019-03-17T12:59:10.713Z,36.00
2019-03-17T13:00:16.510Z,34.55
2019-03-17T13:01:22.053Z,34.27
2019-03-17T13:02:27.748Z,35.50
2019-03-17T13:03:33.014Z,34.77
2019-03-17T13:04:37.869Z,34.50
2019-03-17T13:05:42.660Z,35.82
2019-03-17T13:06:47.778Z,35.62
2019-03-17T13:07:53.158Z,34.97
2019-03-17T13:09:00.952Z,35.76
2019-03-17T13:10:15.060Z,35.89
2019-03-17T13:11:12.588Z,35.17
2019-03-17T13:12:17.854Z,36.05
2019-03-17T13:13:23.187Z,34.91
2019-03-17T13:14:28.267Z,34.70
2019-03-17T13:15:33.024Z,34.72
2019-03-17T13:16:37.832Z,34.36
2019-03-17T13:17:43.021Z,34.56
2019-03-17T13:18:48.311Z,33.56
2019-03-17T13:19:53.859Z,33.45
2019-03-17T13:20:59.508Z,33.71
2019-03-17T13:22:04.478Z,33.48
2019-03-17T13:23:09.847Z,33.09
2019-03-17T13:24:15.399Z,32.63
2019-03-17T13:25:20.374Z,33.99
2019-03-17T13:26:25.700Z,34.52
2019-03-17T13:27:30.978Z,34.59
2019-03-17T13:28:36.365Z,34.72
2019-03-17T13:29:41.417Z,34.10
2019-03-17T13:30:46.880Z,33.01
2019-03-17T13:31:52.249Z,32.69
2019-03-17T13:32:57.282Z,32.64
2019-03-17T13:34:02.657Z,34.31
2019-03-17T13:35:07.752Z,32.64
2019-03-17T13:36:12.733Z,32.87
2019-03-17T13:37:18.285Z,32.21
2019-03-17T13:38:23.627Z,32.26
2019-03-17T13:39:28.941Z,31.89
2019-03-17T13:40:33.461Z,32.49
2019-03-17T13:41:38.710Z,32.54
2019-03-17T13:42:43.675Z,31.90
2019-03-17T13:43:48.970Z,31.62
2019-03-17T13:44:54.362Z,31.87
2019-03-17T13:45:59.534Z,32.49
2019-03-17T13:47:04.847Z,32.86
2019-03-17T13:48:10.165Z,33.88
2019-03-17T13:49:15.496Z,34.95
2019-03-17T13:50:20.553Z,34.85
2019-03-17T13:51:25.215Z,36.33
2019-03-17T13:52:30.561Z,35.44
2019-03-17T13:53:36.376Z,35.77
2019-03-17T13:54:41.374Z,36.66
2019-03-17T13:55:46.773Z,35.79
2019-03-17T13:56:51.508Z,35.85
2019-03-17T13:57:57.016Z,38.00
2019-03-17T13:59:02.675Z,35.72
2019-03-17T14:00:09.473Z,35.53
2019-03-17T14:01:14.504Z,36.57